KTDZ/TDZ METAR and TAF weather

Enter ICAO airport designator
Station Type Date Time Source
KTDZ METAR 2020/01/28 11:53 UTC NOAA

KTDZ 281153Z AUTO 31008KT 10SM OVC013 01/M02 A3004 RMK AO2 SLP176 T00061022 10017 20006 53011


Station Type Date Time Source
KTDZ Decoded METAR 2020/01/28 11:53 UTC NOAA

TOLEDO METCALF FIELD, OH, United States (KTDZ) 41-34N 83-29W 189M
Jan 28, 2020 - 06:53 AM EST / 2020.01.28 1153 UTC
Wind: from the NW (310 degrees) at 9 MPH (8 KT):0
Visibility: 10 mile(s):0
Sky conditions: overcast
Temperature: 33.1 F (0.6 C)
Windchill: 24 F (-4 C):1
Dew Point: 28.0 F (-2.2 C)
Relative Humidity: 81%
Pressure (altimeter): 30.04 in. Hg (1017 hPa)
Pressure tendency: 0.03 inches (1.1 hPa) higher than three hours ago
ob: KTDZ 281153Z AUTO 31008KT 10SM OVC013 01/M02 A3004 RMK AO2 SLP176 T00061022 10017 20006 53011
cycle: 12

Station Type Date Time Source
KTDZ TAF UTC NOAA

Error!

Example: see airport list